Time;durP1;ratioP1;P1;durP2;ratioP2;P2;SDS_P1;SDS_P2;PMS_P1;PMS_P2;Temp;Humidity;BMP_temperature;BMP_pressure;BME280_temperature;BME280_humidity;BME280_pressure;Samples;Min_cycle;Max_cycle;Signal;HPM_P1;HPM_P2
2022/03/23 00:03:47;;;;;;;40.63;16.77;;;;;;;;;;8512280;27;20375;-83
2022/03/23 00:07:53;;;;;;;41.67;16.67;;;;;;;;;;8526120;27;20434;-81
2022/03/23 00:11:57;;;;;;;37.75;16.80;;;;;;;;;;8500190;27;20039;-81
2022/03/23 00:16:00;;;;;;;38.30;16.70;;;;;;;;;;8497954;27;20084;-89
2022/03/23 00:20:05;;;;;;;71.97;25.27;;;;;;;;;;8498010;27;20058;-82
2022/03/23 00:24:10;;;;;;;48.65;19.05;;;;;;;;;;8506702;27;20039;-81
2022/03/23 00:28:13;;;;;;;37.58;16.27;;;;;;;;;;8516028;27;20492;-82
2022/03/23 00:32:17;;;;;;;41.70;16.05;;;;;;;;;;8530149;27;20046;-82
2022/03/23 00:36:20;;;;;;;36.17;15.75;;;;;;;;;;8497935;27;20043;-81
2022/03/23 00:40:24;;;;;;;42.53;16.63;;;;;;;;;;8556005;27;20050;-81
2022/03/23 00:44:27;;;;;;;55.70;19.00;;;;;;;;;;8566522;27;20105;-82
2022/03/23 00:48:30;;;;;;;46.70;17.63;;;;;;;;;;8566482;27;20094;-82
2022/03/23 00:52:32;;;;;;;39.40;16.55;;;;;;;;;;8566440;27;20564;-81
2022/03/23 00:56:37;;;;;;;37.95;16.35;;;;;;;;;;8572064;27;20042;-88
2022/03/23 01:00:41;;;;;;;31.42;15.65;;;;;;;;;;8563366;27;20065;-82
2022/03/23 01:04:43;;;;;;;40.30;16.35;;;;;;;;;;8507601;27;20070;-81
2022/03/23 01:08:46;;;;;;;34.83;14.98;;;;;;;;;;8536487;27;20043;-82
2022/03/23 01:12:50;;;;;;;39.15;15.35;;;;;;;;;;8538153;27;20043;-83
2022/03/23 01:16:53;;;;;;;37.30;15.52;;;;;;;;;;8508922;27;20407;-82
2022/03/23 01:20:56;;;;;;;34.10;15.43;;;;;;;;;;8503674;27;20089;-81
2022/03/23 01:24:58;;;;;;;;;;;;;;;;;;8503905;27;20047;-82
2022/03/23 01:29:03;;;;;;;30.25;14.10;;;;;;;;;;8503387;27;19949;-82
2022/03/23 01:33:06;;;;;;;41.38;15.73;;;;;;;;;;8503053;27;20051;-82
2022/03/23 01:37:09;;;;;;;39.72;15.80;;;;;;;;;;8502925;27;20049;-82
2022/03/23 01:41:11;;;;;;;35.90;15.50;;;;;;;;;;8502934;27;20375;-89
2022/03/23 01:45:15;;;;;;;41.03;15.98;;;;;;;;;;8502772;27;20114;-82
2022/03/23 01:49:18;;;;;;;41.03;16.90;;;;;;;;;;8502606;27;20039;-82
2022/03/23 01:53:20;;;;;;;42.65;18.52;;;;;;;;;;8502447;27;20047;-82
2022/03/23 01:57:24;;;;;;;47.65;18.25;;;;;;;;;;8502244;27;20061;-82
2022/03/23 02:01:28;;;;;;;36.40;16.10;;;;;;;;;;8502275;27;20402;-81
2022/03/23 02:05:31;;;;;;;34.30;15.20;;;;;;;;;;8501084;27;20059;-81
2022/03/23 02:09:34;;;;;;;57.97;20.42;;;;;;;;;;8502603;27;20421;-83
2022/03/23 02:13:36;;;;;;;52.58;19.30;;;;;;;;;;8502005;27;20055;-81
2022/03/23 02:17:42;;;;;;;36.30;14.30;;;;;;;;;;8501701;27;20047;-88
2022/03/23 02:21:46;;;;;;;32.13;14.18;;;;;;;;;;8501627;27;20046;-82
2022/03/23 02:25:53;;;;;;;31.52;13.27;;;;;;;;;;8501572;27;20049;-82
2022/03/23 02:29:55;;;;;;;30.92;13.63;;;;;;;;;;8501450;27;20054;-82
2022/03/23 02:33:58;;;;;;;29.17;13.13;;;;;;;;;;8501049;27;20474;-82
2022/03/23 02:38:02;;;;;;;31.23;13.57;;;;;;;;;;8501081;27;20043;-81
2022/03/23 02:42:05;;;;;;;32.50;14.57;;;;;;;;;;8501371;27;20410;-87
2022/03/23 02:46:13;;;;;;;33.83;13.60;;;;;;;;;;8500723;27;20050;-82
2022/03/23 02:50:15;;;;;;;32.00;14.15;;;;;;;;;;8500780;27;20048;-82
2022/03/23 03:03:07;;;;;;;34.45;14.38;;;;;;;;;;8534459;27;20050;-82
2022/03/23 03:07:09;;;;;;;27.92;13.20;;;;;;;;;;8534597;27;20111;-82
2022/03/23 03:11:13;;;;;;;38.08;13.40;;;;;;;;;;8534408;27;20447;-82
2022/03/23 03:15:17;;;;;;;32.55;13.90;;;;;;;;;;8534188;27;20435;-86
2022/03/23 03:19:19;;;;;;;32.65;14.27;;;;;;;;;;8533755;27;20043;-82
2022/03/23 03:23:23;;;;;;;37.72;15.02;;;;;;;;;;8533855;27;20039;-82
2022/03/23 03:27:27;;;;;;;32.30;14.40;;;;;;;;;;8533669;27;20049;-86
2022/03/23 03:31:29;;;;;;;32.85;14.90;;;;;;;;;;8533608;27;20039;-82
2022/03/23 03:35:32;;;;;;;36.58;15.00;;;;;;;;;;8533420;27;20051;-82
2022/03/23 03:39:34;;;;;;;38.45;15.43;;;;;;;;;;8533212;27;20076;-82
2022/03/23 03:43:39;;;;;;;37.25;14.35;;;;;;;;;;8533265;27;20070;-88
2022/03/23 03:47:42;;;;;;;39.15;14.68;;;;;;;;;;8533156;27;20125;-82
2022/03/23 03:51:44;;;;;;;;;;;;;;;;;;8533560;27;20050;-83
2022/03/23 03:55:46;;;;;;;34.58;12.85;;;;;;;;;;8533049;27;19919;-84
2022/03/23 03:59:50;;;;;;;30.20;15.07;;;;;;;;;;8532650;27;20043;-82
2022/03/23 04:03:53;;;;;;;28.83;13.27;;;;;;;;;;8532526;27;20071;-81
2022/03/23 04:07:56;;;;;;;30.80;13.15;;;;;;;;;;8532572;27;20042;-82
2022/03/23 04:11:58;;;;;;;33.55;13.70;;;;;;;;;;8532492;27;20161;-88
2022/03/23 04:16:02;;;;;;;;;;;;;;;;;;8532922;27;20043;-82
2022/03/23 04:20:06;;;;;;;32.50;12.32;;;;;;;;;;8532318;27;20370;-88
2022/03/23 04:24:09;;;;;;;31.25;13.63;;;;;;;;;;8508925;27;20070;-82
2022/03/23 04:28:12;;;;;;;29.95;13.60;;;;;;;;;;8497846;27;20490;-84
2022/03/23 04:32:16;;;;;;;30.90;13.18;;;;;;;;;;8521967;27;20104;-82
2022/03/23 04:36:18;;;;;;;41.72;16.05;;;;;;;;;;8519122;27;20470;-83
2022/03/23 04:40:21;;;;;;;;;;;;;;;;;;8531448;27;20039;-83
2022/03/23 04:44:23;;;;;;;38.22;14.50;;;;;;;;;;8518037;27;19920;-82
2022/03/23 04:48:27;;;;;;;42.35;17.00;;;;;;;;;;8521120;27;20045;-82
2022/03/23 04:52:31;;;;;;;35.33;14.70;;;;;;;;;;8514746;27;20038;-82
2022/03/23 04:56:33;;;;;;;36.97;15.63;;;;;;;;;;8531661;27;20051;-83
2022/03/23 05:00:36;;;;;;;31.17;12.75;;;;;;;;;;8531046;27;20091;-82
2022/03/23 05:04:43;;;;;;;45.17;15.85;;;;;;;;;;8531344;27;20057;-83
2022/03/23 05:08:48;;;;;;;32.80;15.07;;;;;;;;;;8531082;27;20402;-83
2022/03/23 05:12:53;;;;;;;31.50;13.85;;;;;;;;;;8531663;27;20066;-83
2022/03/23 05:16:58;;;;;;;28.00;12.15;;;;;;;;;;8531337;27;20378;-84
2022/03/23 05:21:04;;;;;;;29.80;11.68;;;;;;;;;;8530945;27;20072;-90
2022/03/23 05:25:09;;;;;;;30.45;12.95;;;;;;;;;;8531629;27;20478;-90
2022/03/23 05:29:13;;;;;;;27.23;11.50;;;;;;;;;;8530799;27;20473;-84
2022/03/23 05:33:18;;;;;;;27.08;12.85;;;;;;;;;;8531012;27;20515;-84
2022/03/23 05:37:23;;;;;;;30.75;12.02;;;;;;;;;;8530624;27;20490;-84
2022/03/23 05:41:28;;;;;;;26.17;12.13;;;;;;;;;;8532930;27;20150;-85
2022/03/23 05:45:33;;;;;;;23.35;11.13;;;;;;;;;;8536994;27;20469;-85
2022/03/23 05:49:37;;;;;;;25.33;11.98;;;;;;;;;;8536376;27;20117;-86
2022/03/23 05:53:42;;;;;;;30.65;12.32;;;;;;;;;;8536921;27;20066;-85
2022/03/23 05:57:45;;;;;;;37.15;13.82;;;;;;;;;;8536234;27;20103;-85
2022/03/23 06:01:48;;;;;;;32.63;15.07;;;;;;;;;;8536528;27;20046;-85
2022/03/23 06:05:52;;;;;;;37.53;14.95;;;;;;;;;;8536294;27;20146;-84
2022/03/23 06:09:56;;;;;;;34.38;15.35;;;;;;;;;;8535898;27;20137;-86
2022/03/23 06:13:59;;;;;;;35.42;14.88;;;;;;;;;;8536183;27;20045;-83
2022/03/23 06:18:02;;;;;;;48.63;24.67;;;;;;;;;;8535675;27;20130;-83
2022/03/23 06:22:05;;;;;;;33.88;15.75;;;;;;;;;;8535793;27;20050;-83
2022/03/23 06:26:10;;;;;;;35.67;15.10;;;;;;;;;;8535818;27;20038;-84
2022/03/23 06:30:14;;;;;;;31.83;15.13;;;;;;;;;;8533916;27;20091;-84
2022/03/23 06:34:16;;;;;;;31.38;14.55;;;;;;;;;;8535950;27;20049;-84
2022/03/23 06:38:20;;;;;;;28.50;13.57;;;;;;;;;;8533113;27;20126;-83
2022/03/23 06:42:27;;;;;;;44.83;17.45;;;;;;;;;;8511708;27;20043;-83
2022/03/23 06:46:30;;;;;;;37.10;16.85;;;;;;;;;;8521334;27;20050;-83
2022/03/23 06:50:34;;;;;;;39.25;17.02;;;;;;;;;;8534436;27;20157;-84
2022/03/23 06:54:36;;;;;;;44.55;19.10;;;;;;;;;;8529832;27;20047;-83
2022/03/23 06:58:40;;;;;;;38.78;13.98;;;;;;;;;;8533525;27;20458;-83
2022/03/23 07:02:43;;;;;;;26.98;13.52;;;;;;;;;;8534183;27;20039;-84
2022/03/23 07:06:46;;;;;;;46.28;21.27;;;;;;;;;;8534318;27;20062;-84
2022/03/23 07:10:49;;;;;;;57.10;25.83;;;;;;;;;;8534198;27;20406;-82
2022/03/23 07:14:53;;;;;;;45.15;19.05;;;;;;;;;;8521518;27;20043;-81
2022/03/23 07:18:56;;;;;;;48.05;23.02;;;;;;;;;;8502297;27;20050;-83
2022/03/23 07:22:58;;;;;;;43.40;16.20;;;;;;;;;;8523691;27;20100;-82
2022/03/23 07:27:01;;;;;;;44.60;25.65;;;;;;;;;;8547052;27;20052;-82
2022/03/23 07:31:05;;;;;;;35.42;20.30;;;;;;;;;;8568225;27;20039;-82
2022/03/23 07:35:08;;;;;;;48.15;33.22;;;;;;;;;;8568109;27;20042;-82
2022/03/23 07:39:15;;;;;;;36.40;24.17;;;;;;;;;;8567813;27;20444;-82
2022/03/23 07:43:17;;;;;;;22.73;12.38;;;;;;;;;;8567830;27;20382;-83
2022/03/23 07:47:21;;;;;;;17.77;9.45;;;;;;;;;;8567739;27;20095;-83
2022/03/23 07:51:24;;;;;;;17.85;9.25;;;;;;;;;;8567601;27;20496;-83
2022/03/23 07:55:26;;;;;;;17.10;9.18;;;;;;;;;;8567401;27;20042;-83
2022/03/23 07:59:29;;;;;;;19.10;8.75;;;;;;;;;;8567321;27;20038;-83
2022/03/23 08:03:33;;;;;;;16.52;9.43;;;;;;;;;;8566532;27;20546;-92
2022/03/23 08:07:36;;;;;;;18.20;9.02;;;;;;;;;;8513201;27;20553;-85
2022/03/23 08:11:39;;;;;;;17.20;8.90;;;;;;;;;;8497498;27;20035;-85
2022/03/23 08:15:42;;;;;;;13.02;8.35;;;;;;;;;;8512103;27;20121;-85
2022/03/23 08:20:32;;;;;;;15.85;8.38;;;;;;;;;;8496228;27;20406;-85
2022/03/23 08:24:10;;;;;;;13.95;8.43;;;;;;;;;;8499616;27;20093;-85
2022/03/23 08:28:14;;;;;;;15.75;9.00;;;;;;;;;;8496783;27;20035;-84
2022/03/23 08:32:18;;;;;;;12.70;8.55;;;;;;;;;;8497052;27;20053;-84
2022/03/23 08:36:22;;;;;;;13.18;7.53;;;;;;;;;;8497847;28;20043;-85
2022/03/23 08:40:25;;;;;;;13.13;7.63;;;;;;;;;;8497658;28;20047;-85
2022/03/23 08:44:28;;;;;;;12.30;7.28;;;;;;;;;;8497568;28;20129;-85
2022/03/23 08:48:30;;;;;;;13.02;7.57;;;;;;;;;;8497531;28;20072;-85
2022/03/23 08:52:35;;;;;;;33.42;9.73;;;;;;;;;;8490571;27;20146;-85
2022/03/23 08:56:40;;;;;;;14.38;7.85;;;;;;;;;;8520173;27;20125;-86
2022/03/23 09:00:45;;;;;;;12.25;7.60;;;;;;;;;;8496916;28;20054;-85
2022/03/23 09:04:50;;;;;;;12.52;7.55;;;;;;;;;;8518169;27;20054;-85
2022/03/23 09:08:55;;;;;;;12.20;7.20;;;;;;;;;;8531026;27;20398;-86
2022/03/23 09:12:59;;;;;;;13.63;7.80;;;;;;;;;;8526809;27;20459;-87
2022/03/23 09:17:02;;;;;;;13.80;7.80;;;;;;;;;;8533412;27;20038;-87
2022/03/23 09:21:05;;;;;;;13.00;7.38;;;;;;;;;;8545500;27;20744;-91
2022/03/23 09:25:11;;;;;;;11.63;7.18;;;;;;;;;;8535994;27;20043;-86
2022/03/23 10:48:32;;;;;;;18.30;8.47;;;;;;;;;;8535205;27;1539738;-71
2022/03/23 10:52:35;;;;;;;15.23;9.65;;;;;;;;;;8564946;27;20490;-92
2022/03/23 10:56:39;;;;;;;14.80;7.00;;;;;;;;;;8559184;27;20119;-90
2022/03/23 11:00:42;;;;;;;11.50;7.30;;;;;;;;;;8545943;27;20111;-92
2022/03/23 11:04:52;;;;;;;9.52;4.70;;;;;;;;;;8546138;27;20035;-91
2022/03/23 11:15:45;;;;;;;8.15;4.18;;;;;;;;;;8555282;27;20067;-91
2022/03/23 11:17:43;;;;;;;10.07;5.65;;;;;;;;;;8551824;27;20095;-93
2022/03/23 11:22:09;;;;;;;11.10;6.10;;;;;;;;;;8554216;27;20058;-94
2022/03/23 11:26:13;;;;;;;11.32;5.95;;;;;;;;;;8561663;27;20042;-91
2022/03/23 11:30:15;;;;;;;12.90;6.68;;;;;;;;;;8550010;27;20115;-92
2022/03/23 11:34:20;;;;;;;10.30;5.40;;;;;;;;;;8537236;27;20043;-92
2022/03/23 11:38:27;;;;;;;9.05;5.60;;;;;;;;;;8530542;27;20042;-89
2022/03/23 11:42:31;;;;;;;14.63;6.40;;;;;;;;;;8550853;27;20062;-90
2022/03/23 11:46:35;;;;;;;10.13;5.90;;;;;;;;;;8534250;27;20051;-92
2022/03/23 11:50:55;;;;;;;10.30;5.85;;;;;;;;;;8539314;27;20041;-91
2022/03/23 11:59:31;;;;;;;12.55;5.10;;;;;;;;;;8510902;27;20383;-91
2022/03/23 12:03:53;;;;;;;11.20;5.70;;;;;;;;;;8529933;27;20091;-90
2022/03/23 12:07:57;;;;;;;11.32;6.03;;;;;;;;;;8540683;27;20050;-91
2022/03/23 12:12:02;;;;;;;11.43;5.70;;;;;;;;;;8537692;27;20066;-90
2022/03/23 12:16:06;;;;;;;12.32;5.78;;;;;;;;;;8515997;27;20090;-89
2022/03/23 12:20:12;;;;;;;11.90;5.82;;;;;;;;;;8544520;27;20054;-90
2022/03/23 12:24:26;;;;;;;11.95;5.88;;;;;;;;;;8528377;27;20053;-90
2022/03/23 12:28:35;;;;;;;12.43;6.65;;;;;;;;;;8543968;27;20046;-91
2022/03/23 12:32:39;;;;;;;12.32;6.53;;;;;;;;;;8541998;27;20053;-90
2022/03/23 12:37:04;;;;;;;11.55;6.13;;;;;;;;;;8543531;27;20076;-93
2022/03/23 12:41:09;;;;;;;12.25;6.13;;;;;;;;;;8539607;27;20478;-90
2022/03/23 12:45:18;;;;;;;9.48;4.75;;;;;;;;;;8538677;27;20061;-90
2022/03/23 12:58:07;;;;;;;10.95;5.43;;;;;;;;;;8540599;27;20041;-91
2022/03/23 13:02:31;;;;;;;8.07;4.70;;;;;;;;;;8535669;27;20094;-90
2022/03/23 13:06:37;;;;;;;9.77;5.13;;;;;;;;;;8532251;27;20039;-92
2022/03/23 13:10:54;;;;;;;8.40;4.65;;;;;;;;;;8504992;27;20050;-93
2022/03/23 13:14:57;;;;;;;10.35;5.38;;;;;;;;;;8518347;27;20475;-93
2022/03/23 13:19:03;;;;;;;8.65;5.22;;;;;;;;;;8529151;27;20125;-93
2022/03/23 13:23:14;;;;;;;10.13;5.45;;;;;;;;;;8533559;27;20039;-89
2022/03/23 13:27:19;;;;;;;13.82;6.13;;;;;;;;;;8508818;27;20042;-91
2022/03/23 13:31:29;;;;;;;10.00;5.93;;;;;;;;;;8536455;27;20126;-92
2022/03/23 13:35:43;;;;;;;12.05;5.80;;;;;;;;;;8527099;27;20031;-92
2022/03/23 13:39:49;;;;;;;14.88;7.03;;;;;;;;;;8536076;27;20084;-91
2022/03/23 13:43:54;;;;;;;10.55;5.32;;;;;;;;;;8535476;27;20134;-91
2022/03/23 13:47:57;;;;;;;12.13;5.13;;;;;;;;;;8512150;27;20559;-91
2022/03/23 13:52:04;;;;;;;9.45;5.47;;;;;;;;;;8530626;27;20066;-89
2022/03/23 13:56:08;;;;;;;12.15;6.03;;;;;;;;;;8507849;27;20046;-89
2022/03/23 14:00:23;;;;;;;10.60;5.43;;;;;;;;;;8530103;27;20054;-89
2022/03/23 14:04:26;;;;;;;10.90;5.97;;;;;;;;;;8534502;27;20482;-92
2022/03/23 14:08:31;;;;;;;9.90;5.90;;;;;;;;;;8533756;27;20473;-90
2022/03/23 14:12:34;;;;;;;20.20;7.75;;;;;;;;;;8534243;27;20042;-89
2022/03/23 14:16:39;;;;;;;25.48;15.32;;;;;;;;;;8532991;27;20050;-91
2022/03/23 14:20:51;;;;;;;12.35;6.60;;;;;;;;;;8533779;27;20039;-90
2022/03/23 14:24:58;;;;;;;11.35;5.60;;;;;;;;;;8533402;27;20042;-89
2022/03/23 14:29:02;;;;;;;11.73;7.05;;;;;;;;;;8533222;27;20592;-88
2022/03/23 14:33:05;;;;;;;12.48;6.70;;;;;;;;;;8519611;27;20070;-90
2022/03/23 14:37:09;;;;;;;10.07;5.50;;;;;;;;;;8503095;27;20038;-89
2022/03/23 14:41:21;;;;;;;15.23;6.28;;;;;;;;;;8532932;27;20474;-88
2022/03/23 14:45:30;;;;;;;10.02;5.43;;;;;;;;;;8532640;27;20054;-90
2022/03/23 14:49:37;;;;;;;10.52;5.53;;;;;;;;;;8533585;27;20097;-91
2022/03/23 14:53:41;;;;;;;10.85;5.80;;;;;;;;;;8532653;27;20497;-89
2022/03/23 14:57:45;;;;;;;13.68;6.40;;;;;;;;;;8513001;27;20039;-89
2022/03/23 15:01:56;;;;;;;12.73;6.68;;;;;;;;;;8498926;28;20469;-89
2022/03/23 15:14:42;;;;;;;13.30;6.20;;;;;;;;;;8526491;27;20123;-87
2022/03/23 15:18:46;;;;;;;10.10;5.53;;;;;;;;;;8532741;27;20414;-89
2022/03/23 15:22:49;;;;;;;11.07;5.65;;;;;;;;;;8522268;27;20046;-90
2022/03/23 15:26:53;;;;;;;13.10;6.75;;;;;;;;;;8514970;27;20043;-89
2022/03/23 15:30:58;;;;;;;9.45;5.82;;;;;;;;;;8499733;27;20497;-91
2022/03/23 15:35:01;;;;;;;14.43;8.18;;;;;;;;;;8523292;27;20039;-89
2022/03/23 15:39:05;;;;;;;9.82;5.60;;;;;;;;;;8516098;27;20043;-90
2022/03/23 15:43:09;;;;;;;17.08;6.93;;;;;;;;;;8515602;27;20039;-90
2022/03/23 15:47:14;;;;;;;27.23;10.93;;;;;;;;;;8516324;27;20047;-90
2022/03/23 15:51:18;;;;;;;15.70;7.55;;;;;;;;;;8508429;27;20043;-90
2022/03/23 15:55:40;;;;;;;16.30;7.53;;;;;;;;;;8513706;27;20100;-90
2022/03/23 16:00:05;;;;;;;20.48;10.00;;;;;;;;;;8511534;27;20121;-89
2022/03/23 16:04:14;;;;;;;30.33;14.70;;;;;;;;;;8514446;27;20043;-89
2022/03/23 16:08:20;;;;;;;25.05;13.27;;;;;;;;;;8510432;27;20046;-89
2022/03/23 16:12:24;;;;;;;25.05;12.07;;;;;;;;;;8517283;27;20160;-90
2022/03/23 16:16:27;;;;;;;28.38;13.25;;;;;;;;;;8514492;27;20062;-89
2022/03/23 16:20:32;;;;;;;23.75;11.45;;;;;;;;;;8509689;27;20035;-89
2022/03/23 16:24:42;;;;;;;26.77;11.23;;;;;;;;;;8512045;27;20086;-89
2022/03/23 16:28:53;;;;;;;28.65;13.38;;;;;;;;;;8513445;27;20047;-89
2022/03/23 16:32:58;;;;;;;20.95;9.90;;;;;;;;;;8517261;27;20259;-90
2022/03/23 16:37:04;;;;;;;21.10;9.63;;;;;;;;;;8508206;27;20039;-90
2022/03/23 16:45:32;;;;;;;20.33;9.45;;;;;;;;;;8521247;27;20138;-88
2022/03/23 16:49:36;;;;;;;23.58;10.13;;;;;;;;;;8508117;27;20042;-89
2022/03/23 16:53:45;;;;;;;20.02;9.38;;;;;;;;;;8516002;27;20042;-89
2022/03/23 16:57:54;;;;;;;27.15;9.30;;;;;;;;;;8508626;27;20038;-89
2022/03/23 17:02:00;;;;;;;19.95;8.43;;;;;;;;;;8517480;27;20039;-89
2022/03/23 17:14:50;;;;;;;21.95;9.07;;;;;;;;;;8525235;27;20039;-89
2022/03/23 17:18:54;;;;;;;24.75;9.68;;;;;;;;;;8514185;27;20131;-88
2022/03/23 17:22:59;;;;;;;24.02;10.63;;;;;;;;;;8513163;27;20046;-88
2022/03/23 17:27:07;;;;;;;24.52;11.52;;;;;;;;;;8513146;27;20125;-89
2022/03/23 17:31:17;;;;;;;20.77;9.63;;;;;;;;;;8514632;27;20466;-88
2022/03/23 17:35:25;;;;;;;20.52;9.77;;;;;;;;;;8508973;27;20134;-89
2022/03/23 17:39:39;;;;;;;58.33;23.07;;;;;;;;;;8515285;27;20119;-89
2022/03/23 17:43:50;;;;;;;56.50;21.50;;;;;;;;;;8512942;27;20121;-90
2022/03/23 17:47:55;;;;;;;84.57;32.13;;;;;;;;;;8504681;27;20134;-89
2022/03/23 17:52:03;;;;;;;55.95;24.00;;;;;;;;;;8503333;27;20058;-89
2022/03/23 17:56:09;;;;;;;85.95;29.20;;;;;;;;;;8515118;27;20126;-87
2022/03/23 18:00:20;;;;;;;67.53;26.80;;;;;;;;;;8501254;27;20045;-89
2022/03/23 18:04:30;;;;;;;69.30;27.63;;;;;;;;;;8508628;27;20368;-88
2022/03/23 18:08:34;;;;;;;52.78;21.70;;;;;;;;;;8514654;27;20138;-88
2022/03/23 18:12:39;;;;;;;90.30;29.75;;;;;;;;;;8499708;27;20059;-89
2022/03/23 18:16:48;;;;;;;31.38;13.73;;;;;;;;;;8490548;27;20046;-88
2022/03/23 18:20:53;;;;;;;37.20;17.60;;;;;;;;;;8525714;27;20043;-88
2022/03/23 18:24:56;;;;;;;40.42;15.68;;;;;;;;;;8504660;27;20046;-88
2022/03/23 18:29:33;;;;;;;45.28;18.98;;;;;;;;;;8498038;27;20515;-90
2022/03/23 18:33:44;;;;;;;31.85;14.48;;;;;;;;;;8508743;27;20446;-90
2022/03/23 18:37:47;;;;;;;28.27;11.60;;;;;;;;;;8517472;27;20401;-89
2022/03/23 18:41:53;;;;;;;35.92;13.30;;;;;;;;;;8511818;27;20069;-90
2022/03/23 18:46:03;;;;;;;23.73;10.15;;;;;;;;;;8530099;27;20145;-88
2022/03/23 18:50:13;;;;;;;20.83;10.50;;;;;;;;;;8503682;27;20039;-89
2022/03/23 18:54:19;;;;;;;27.50;11.48;;;;;;;;;;8528747;27;20094;-86
2022/03/23 18:58:25;;;;;;;22.48;9.60;;;;;;;;;;8512387;27;20043;-87
2022/03/23 19:02:29;;;;;;;36.63;16.50;;;;;;;;;;8532059;27;20047;-89
2022/03/23 19:06:35;;;;;;;45.70;15.48;;;;;;;;;;8532366;27;20493;-87
2022/03/23 19:10:39;;;;;;;28.10;10.25;;;;;;;;;;8539311;27;20134;-88
2022/03/23 19:14:42;;;;;;;18.25;8.85;;;;;;;;;;8486585;27;20059;-89
2022/03/23 19:18:49;;;;;;;27.35;12.13;;;;;;;;;;8516455;27;20399;-89
2022/03/23 19:22:58;;;;;;;24.60;9.65;;;;;;;;;;8527398;27;20043;-92
2022/03/23 19:27:06;;;;;;;22.85;10.45;;;;;;;;;;8509054;27;20039;-92
2022/03/23 19:31:13;;;;;;;26.52;10.38;;;;;;;;;;8495251;27;20042;-94
2022/03/23 19:35:18;;;;;;;27.35;12.35;;;;;;;;;;8520958;27;20046;-90
2022/03/23 19:39:32;;;;;;;22.30;10.30;;;;;;;;;;8518119;27;20050;-88
2022/03/23 19:43:39;;;;;;;33.80;15.80;;;;;;;;;;8510195;27;20449;-90
2022/03/23 19:47:45;;;;;;;23.10;9.70;;;;;;;;;;8520140;27;20050;-89
2022/03/23 19:51:48;;;;;;;23.42;11.07;;;;;;;;;;8525208;27;20505;-86
2022/03/23 19:55:56;;;;;;;28.60;10.57;;;;;;;;;;8518637;27;20402;-89
2022/03/23 20:00:04;;;;;;;27.73;11.68;;;;;;;;;;8512721;27;20137;-92
2022/03/23 20:04:11;;;;;;;24.40;11.50;;;;;;;;;;8514656;27;20042;-91
2022/03/23 20:08:18;;;;;;;26.20;10.70;;;;;;;;;;8513087;27;20035;-91
2022/03/23 20:12:30;;;;;;;20.83;9.93;;;;;;;;;;8520991;27;20057;-87
2022/03/23 20:16:38;;;;;;;34.63;10.85;;;;;;;;;;8519114;27;20039;-87
2022/03/23 20:20:44;;;;;;;26.67;11.05;;;;;;;;;;8517833;27;20042;-90
2022/03/23 20:24:52;;;;;;;29.58;10.85;;;;;;;;;;8509171;27;20063;-90
2022/03/23 20:29:01;;;;;;;34.20;11.10;;;;;;;;;;8506758;27;20043;-91
2022/03/23 20:33:10;;;;;;;37.30;13.25;;;;;;;;;;8516990;27;20091;-91
2022/03/23 20:37:17;;;;;;;28.35;11.82;;;;;;;;;;8509180;27;20035;-91
2022/03/23 20:41:21;;;;;;;31.27;14.82;;;;;;;;;;8512511;27;20045;-89
2022/03/23 20:45:51;;;;;;;38.75;16.48;;;;;;;;;;8518448;27;20086;-89
2022/03/23 20:49:55;;;;;;;33.08;13.57;;;;;;;;;;8493228;27;20550;-88
2022/03/23 20:53:58;;;;;;;46.45;16.52;;;;;;;;;;8501267;27;20046;-90
2022/03/23 20:58:02;;;;;;;26.40;12.77;;;;;;;;;;8501362;27;20561;-87
2022/03/23 21:02:08;;;;;;;51.65;21.13;;;;;;;;;;8501045;27;20050;-88
2022/03/23 21:06:17;;;;;;;31.58;14.75;;;;;;;;;;8501054;27;20039;-88
2022/03/23 21:10:20;;;;;;;33.63;14.10;;;;;;;;;;8500757;27;20054;-87
2022/03/23 21:14:23;;;;;;;33.92;14.13;;;;;;;;;;8500646;27;20096;-88
2022/03/23 21:18:28;;;;;;;33.22;14.63;;;;;;;;;;8500482;27;20039;-88
2022/03/23 21:22:31;;;;;;;30.48;13.88;;;;;;;;;;8500332;27;20533;-87
2022/03/23 21:26:35;;;;;;;38.40;16.45;;;;;;;;;;8500174;27;20047;-87
2022/03/23 21:30:41;;;;;;;32.75;14.80;;;;;;;;;;8499230;27;20070;-88
2022/03/23 21:34:47;;;;;;;38.67;16.52;;;;;;;;;;8500079;27;20071;-89
2022/03/23 21:38:50;;;;;;;34.13;16.05;;;;;;;;;;8500064;27;20046;-88
2022/03/23 21:42:55;;;;;;;30.40;13.65;;;;;;;;;;8499860;27;20047;-86
2022/03/23 21:46:58;;;;;;;34.30;15.13;;;;;;;;;;8499380;27;20498;-86
2022/03/23 21:51:02;;;;;;;36.58;14.75;;;;;;;;;;8499485;27;20126;-87
2022/03/23 21:55:06;;;;;;;30.00;12.85;;;;;;;;;;8499380;27;20050;-90
2022/03/23 21:59:09;;;;;;;28.05;12.77;;;;;;;;;;8499339;27;20138;-91
2022/03/23 22:03:12;;;;;;;28.75;11.93;;;;;;;;;;8499204;27;20504;-87
2022/03/23 22:07:16;;;;;;;28.08;12.20;;;;;;;;;;8498982;27;20067;-90
2022/03/23 22:11:19;;;;;;;30.98;13.80;;;;;;;;;;8498875;27;20104;-89
2022/03/23 22:15:22;;;;;;;30.15;13.38;;;;;;;;;;8498972;27;20445;-89
2022/03/23 22:19:24;;;;;;;25.77;12.05;;;;;;;;;;8498650;27;20043;-87
2022/03/23 22:23:29;;;;;;;22.70;12.27;;;;;;;;;;8498760;27;20051;-89
2022/03/23 22:27:31;;;;;;;34.38;12.43;;;;;;;;;;8498379;27;20478;-90
2022/03/23 22:31:34;;;;;;;25.88;12.13;;;;;;;;;;8498622;27;20074;-87
2022/03/23 22:35:36;;;;;;;25.80;12.45;;;;;;;;;;8498302;27;20099;-87
2022/03/23 22:39:41;;;;;;;32.13;12.50;;;;;;;;;;8498284;27;20258;-87
2022/03/23 22:43:45;;;;;;;35.47;13.80;;;;;;;;;;8519834;27;20043;-87
2022/03/23 22:47:48;;;;;;;28.40;12.32;;;;;;;;;;8566486;27;20101;-87
2022/03/23 22:51:51;;;;;;;28.05;13.02;;;;;;;;;;8566806;27;20039;-90
2022/03/23 22:55:55;;;;;;;38.88;13.60;;;;;;;;;;8536879;27;20458;-86
2022/03/23 22:59:57;;;;;;;29.83;13.07;;;;;;;;;;8532195;27;20042;-87
2022/03/23 23:04:00;;;;;;;27.63;12.93;;;;;;;;;;8525731;27;20043;-87
2022/03/23 23:08:03;;;;;;;31.80;13.88;;;;;;;;;;8527777;27;20035;-91
2022/03/23 23:12:12;;;;;;;27.35;12.23;;;;;;;;;;8520550;27;20034;-90
2022/03/23 23:16:14;;;;;;;26.38;12.80;;;;;;;;;;8514806;27;20049;-89
2022/03/23 23:20:17;;;;;;;32.22;13.45;;;;;;;;;;8514239;27;20045;-90
2022/03/23 23:24:20;;;;;;;36.40;14.45;;;;;;;;;;8518861;27;20066;-88
2022/03/23 23:28:33;;;;;;;31.77;14.25;;;;;;;;;;8508720;27;20047;-87
2022/03/23 23:32:35;;;;;;;;;;;;;;;;;;8516493;27;20054;-89
2022/03/23 23:36:45;;;;;;;29.80;13.35;;;;;;;;;;8519079;27;19926;-91
2022/03/23 23:40:47;;;;;;;34.15;14.32;;;;;;;;;;8518618;27;20042;-90
2022/03/23 23:44:51;;;;;;;29.55;12.75;;;;;;;;;;8513268;27;20125;-88
2022/03/23 23:48:54;;;;;;;34.28;14.52;;;;;;;;;;8521404;27;20070;-89
2022/03/23 23:52:57;;;;;;;38.00;14.27;;;;;;;;;;8529434;27;20043;-90
2022/03/23 23:56:59;;;;;;;31.02;14.45;;;;;;;;;;8520554;27;20045;-90
